Time;durP1;ratioP1;P1;durP2;ratioP2;P2;SDS_P1;SDS_P2;PMS_P1;PMS_P2;Temp;Humidity;BMP_temperature;BMP_pressure;BME280_temperature;BME280_humidity;BME280_pressure;Samples;Min_cycle;Max_cycle;Signal;HPM_P1;HPM_P2
2021/04/21 00:00:09;;;;;;;17.48;10.95;;;;;;;12.73;62.50;99707.92;1706702;82;21219;-86
2021/04/21 00:02:36;;;;;;;20.77;10.30;;;;;;;12.69;62.89;99705.30;1702464;82;21183;-84
2021/04/21 00:05:06;;;;;;;18.30;10.40;;;;;;;12.70;62.74;99706.95;1708099;83;21207;-86
2021/04/21 00:07:32;;;;;;;17.87;10.72;;;;;;;12.56;63.12;99697.47;1699417;83;21199;-88
2021/04/21 00:09:58;;;;;;;16.93;10.63;;;;;;;12.54;63.34;99707.44;1677260;83;21473;-85
2021/04/21 00:12:26;;;;;;;16.42;11.00;;;;;;;12.56;63.47;99704.61;1702890;83;20937;-86
2021/04/21 00:14:55;;;;;;;17.80;10.40;;;;;;;12.66;63.34;99704.34;1702826;82;21143;-87
2021/04/21 00:17:21;;;;;;;21.62;11.70;;;;;;;12.48;63.94;99698.88;1701944;83;21095;-85
2021/04/21 00:19:47;;;;;;;16.55;11.05;;;;;;;12.54;63.90;99698.16;1683558;83;21261;-86
2021/04/21 00:22:17;;;;;;;19.98;11.88;;;;;;;12.48;64.14;99697.56;1690661;83;21199;-86
2021/04/21 00:24:44;;;;;;;22.65;12.23;;;;;;;12.50;64.18;99685.46;1701709;83;21215;-86
2021/04/21 00:27:11;;;;;;;18.48;11.68;;;;;;;12.52;64.16;99685.61;1684283;83;21203;-85
2021/04/21 00:29:46;;;;;;;23.10;13.28;;;;;;;12.63;63.93;99683.51;1659390;83;21602;-85
2021/04/21 00:32:12;;;;;;;19.25;12.43;;;;;;;12.64;64.05;99685.16;1702837;82;21207;-86
2021/04/21 00:34:38;;;;;;;19.98;11.80;;;;;;;12.74;63.87;99689.70;1698408;83;21591;-86
2021/04/21 00:37:05;;;;;;;22.27;13.58;;;;;;;12.58;64.19;99678.75;1708467;83;21147;-86
2021/04/21 00:39:33;;;;;;;23.83;13.05;;;;;;;12.55;64.44;99675.98;1703113;83;21484;-86
2021/04/21 00:42:14;;;;;;;;;;;;;;;12.64;64.23;99675.89;1723372;82;21181;-86
2021/04/21 00:44:45;;;;;;;20.92;13.60;;;;;;;12.55;64.49;99669.36;1702759;83;20309;-86
2021/04/21 00:47:19;;;;;;;20.40;13.32;;;;;;;12.43;65.14;99669.96;1720576;81;21415;-86
2021/04/21 00:50:11;;;;;;;21.33;12.85;;;;;;;12.51;64.78;99667.25;1697090;82;21133;-86
2021/04/21 00:52:56;;;;;;;23.70;13.78;;;;;;;12.53;64.80;99667.38;1719421;82;21185;-86
2021/04/21 00:55:37;;;;;;;23.80;14.35;;;;;;;12.64;64.44;99665.30;1713938;83;21239;-85
2021/04/21 00:58:46;;;;;;;25.00;13.58;;;;;;;12.39;65.16;99665.02;1716008;82;21244;-85
2021/04/21 01:01:12;;;;;;;19.67;13.05;;;;;;;12.20;65.82;99663.71;1697017;82;21222;-84
2021/04/21 01:03:41;;;;;;;24.02;14.33;;;;;;;12.33;65.54;99663.09;1722305;83;27098;-85
2021/04/21 01:06:14;;;;;;;21.42;13.28;;;;;;;12.31;65.72;99664.30;1717193;83;21202;-85
2021/04/21 01:08:49;;;;;;;25.70;14.55;;;;;;;12.38;65.43;99655.94;1721740;82;21663;-85
2021/04/21 01:11:34;;;;;;;25.52;14.68;;;;;;;12.36;65.56;99656.63;1696106;83;21170;-87
2021/04/21 01:14:14;;;;;;;24.20;14.18;;;;;;;12.27;65.80;99653.22;1717622;81;21217;-85
2021/04/21 01:16:43;;;;;;;25.20;14.87;;;;;;;12.20;66.06;99653.13;1717977;82;21184;-85
2021/04/21 01:19:44;;;;;;;25.40;15.15;;;;;;;12.24;66.07;99655.41;1722282;81;21648;-86
2021/04/21 01:22:16;;;;;;;24.15;15.05;;;;;;;12.08;66.53;99658.52;1716686;82;21207;-85
2021/04/21 01:24:52;;;;;;;26.45;14.80;;;;;;;11.94;67.05;99650.04;1698396;82;21574;-86
2021/04/21 01:27:21;;;;;;;25.97;14.47;;;;;;;11.97;67.21;99649.69;1720542;82;22049;-85
2021/04/21 01:29:50;;;;;;;25.52;14.83;;;;;;;12.00;66.90;99650.66;1694395;83;21200;-88
2021/04/21 01:32:24;;;;;;;25.65;15.13;;;;;;;12.05;66.87;99644.32;1689088;83;21209;-85
2021/04/21 01:34:51;;;;;;;27.87;16.17;;;;;;;11.96;67.23;99641.42;1698239;81;21793;-85
2021/04/21 01:37:27;;;;;;;27.50;16.30;;;;;;;11.87;67.78;99645.94;1717959;83;21158;-85
2021/04/21 01:40:26;;;;;;;26.60;16.02;;;;;;;11.89;67.47;99644.44;1692437;83;21246;-84
2021/04/21 01:42:55;;;;;;;26.10;15.83;;;;;;;11.92;67.42;99641.44;1718325;82;21713;-87
2021/04/21 01:45:31;;;;;;;29.63;16.02;;;;;;;11.89;67.64;99644.44;1724405;82;21232;-85
2021/04/21 01:48:06;;;;;;;29.87;15.85;;;;;;;11.77;68.00;99644.83;1720144;81;22233;-86
2021/04/21 01:50:32;;;;;;;26.02;16.65;;;;;;;11.85;67.57;99644.79;1722145;82;21139;-87
2021/04/21 01:53:35;;;;;;;28.17;17.35;;;;;;;11.81;67.66;99638.20;1718637;83;21172;-86
2021/04/21 01:56:21;;;;;;;25.95;16.15;;;;;;;11.83;67.79;99646.77;1659702;82;21249;-85
2021/04/21 01:59:11;;;;;;;27.82;16.87;;;;;;;11.76;67.85;99650.30;1723457;80;21218;-85
2021/04/21 02:02:04;;;;;;;27.25;17.30;;;;;;;11.58;68.54;99650.09;1719148;81;21230;-86
2021/04/21 02:05:22;;;;;;;28.62;17.32;;;;;;;11.59;68.64;99654.87;1715488;82;21182;-85
2021/04/21 02:08:16;;;;;;;29.42;16.67;;;;;;;11.67;68.51;99657.48;1721788;81;21189;-86
2021/04/21 02:11:07;;;;;;;26.17;16.05;;;;;;;11.64;68.67;99652.03;1719745;82;21250;-85
2021/04/21 02:14:17;;;;;;;26.80;17.27;;;;;;;11.59;69.04;99654.87;1720342;82;21194;-85
2021/04/21 02:17:27;;;;;;;32.10;18.87;;;;;;;11.70;68.70;99661.09;1721894;83;21489;-85
2021/04/21 02:20:10;;;;;;;28.17;17.57;;;;;;;11.52;69.29;99657.91;1718735;82;21152;-83
2021/04/21 02:22:54;;;;;;;31.20;18.35;;;;;;;11.48;69.71;99655.61;1717467;81;21187;-84
2021/04/21 02:25:34;;;;;;;33.95;18.45;;;;;;;11.56;69.62;99647.28;1718056;82;21681;-84
2021/04/21 02:28:24;;;;;;;29.42;18.35;;;;;;;11.50;69.86;99648.82;1721557;81;21226;-84
2021/04/21 02:31:15;;;;;;;34.20;18.87;;;;;;;11.47;70.09;99647.34;1717295;82;21228;-84
2021/04/21 02:33:56;;;;;;;33.48;18.98;;;;;;;11.52;69.84;99647.33;1715132;83;21573;-86
2021/04/21 02:36:47;;;;;;;34.38;19.62;;;;;;;11.40;70.39;99643.73;1698913;83;21209;-86
2021/04/21 02:39:21;;;;;;;29.92;18.57;;;;;;;11.48;70.33;99644.19;1715049;81;21565;-86
2021/04/21 02:42:29;;;;;;;31.30;19.87;;;;;;;11.50;70.33;99644.34;1723074;82;21150;-86
2021/04/21 02:45:29;;;;;;;29.77;19.45;;;;;;;11.40;70.77;99644.25;1722326;81;21368;-85
2021/04/21 02:48:03;;;;;;;33.83;21.07;;;;;;;11.53;70.44;99637.05;1690646;82;21235;-85
2021/04/21 02:50:46;;;;;;;35.80;20.43;;;;;;;11.48;70.63;99639.74;1727366;81;21337;-86
2021/04/21 02:53:28;;;;;;;31.87;21.23;;;;;;;11.48;70.70;99639.74;1728953;81;21162;-85
2021/04/21 02:56:32;;;;;;;38.83;20.80;;;;;;;11.47;70.96;99638.59;1722408;81;21656;-84
2021/04/21 02:59:34;;;;;;;32.48;20.95;;;;;;;11.39;71.48;99628.05;1725753;82;21204;-85
2021/04/21 03:02:19;;;;;;;35.25;20.77;;;;;;;11.36;71.87;99637.17;1724881;82;21130;-84
2021/04/21 03:05:02;;;;;;;34.58;20.95;;;;;;;11.49;71.72;99642.69;1724509;82;21391;-84
2021/04/21 03:08:03;;;;;;;36.93;21.65;;;;;;;11.47;72.07;99634.12;1722115;82;21193;-84
2021/04/21 03:10:37;;;;;;;33.50;22.22;;;;;;;11.60;71.96;99630.08;1726235;82;21240;-85
2021/04/21 03:13:18;;;;;;;32.38;21.15;;;;;;;11.59;71.73;99629.74;1690008;81;21255;-85
2021/04/21 03:15:52;;;;;;;35.08;22.37;;;;;;;11.58;71.85;99625.47;1719107;82;21166;-85
2021/04/21 03:18:21;;;;;;;37.28;23.47;;;;;;;11.54;72.21;99621.52;1723342;82;21222;-85
2021/04/21 03:21:03;;;;;;;33.08;20.95;;;;;;;11.57;72.26;99621.17;1726975;81;21174;-85
2021/04/21 03:23:29;;;;;;;40.83;24.90;;;;;;;11.53;72.53;99619.87;1728570;81;21205;-85
2021/04/21 03:25:59;;;;;;;39.95;22.98;;;;;;;11.51;72.80;99620.04;1730576;81;21187;-85
2021/04/21 03:28:27;;;;;;;37.73;23.45;;;;;;;11.45;73.02;99614.97;1724472;81;21161;-85
2021/04/21 03:30:59;;;;;;;36.35;22.32;;;;;;;11.58;72.60;99617.55;1726483;81;21241;-85
2021/04/21 03:33:44;;;;;;;37.42;23.80;;;;;;;11.52;73.04;99614.28;1722179;82;21182;-85
2021/04/21 03:36:10;;;;;;;22.93;14.93;;;;;;;11.67;73.02;99600.62;1696705;82;21173;-85
2021/04/21 03:38:36;;;;;;;21.37;14.70;;;;;;;11.73;65.62;99589.81;1721710;82;20964;-85
2021/04/21 03:41:04;;;;;;;29.52;18.25;;;;;;;11.92;67.22;99589.84;1724517;82;20951;-85
2021/04/21 03:43:30;;;;;;;29.27;18.27;;;;;;;12.11;68.83;99593.83;1717449;82;21222;-85
2021/04/21 03:45:56;;;;;;;32.98;21.15;;;;;;;12.21;69.97;99591.73;1669480;83;21223;-85
2021/04/21 03:48:22;;;;;;;35.48;22.70;;;;;;;11.94;71.57;99620.94;1710450;82;21270;-85
2021/04/21 03:50:52;;;;;;;35.15;23.27;;;;;;;11.55;74.22;99629.28;1687585;83;20945;-85
2021/04/21 03:53:19;;;;;;;39.38;23.95;;;;;;;11.34;75.34;99636.50;1719560;82;21620;-85
2021/04/21 03:55:46;;;;;;;39.50;23.27;;;;;;;11.37;75.29;99641.44;1719530;83;21367;-86
2021/04/21 03:58:16;;;;;;;36.90;24.35;;;;;;;11.07;76.56;99643.09;1716789;81;21202;-86
2021/04/21 04:00:41;;;;;;;36.40;24.05;;;;;;;11.02;77.09;99659.45;1713441;81;21198;-85
2021/04/21 04:03:10;;;;;;;37.73;24.67;;;;;;;10.93;77.91;99653.88;1716222;82;28801;-85
2021/04/21 04:06:08;;;;;;;38.75;25.02;;;;;;;10.99;77.88;99654.52;1712937;82;21194;-85
2021/04/21 04:08:46;;;;;;;37.95;25.50;;;;;;;11.00;77.74;99664.10;1718376;83;21601;-85
2021/04/21 04:11:14;;;;;;;39.13;23.83;;;;;;;11.08;77.71;99660.60;1716159;81;27472;-84
2021/04/21 04:13:45;;;;;;;38.78;25.05;;;;;;;11.13;77.48;99663.04;1698145;83;21236;-84
2021/04/21 04:16:13;;;;;;;37.73;26.12;;;;;;;11.12;77.59;99653.95;1701211;83;21201;-85
2021/04/21 04:18:41;;;;;;;40.17;26.68;;;;;;;11.19;77.39;99658.89;1720161;81;21202;-85
2021/04/21 04:21:10;;;;;;;40.80;26.10;;;;;;;11.43;76.87;99653.96;1715427;82;21488;-84
2021/04/21 04:23:40;;;;;;;40.60;24.35;;;;;;;11.43;76.96;99656.61;1720968;82;21172;-85
2021/04/21 04:26:08;;;;;;;44.63;26.75;;;;;;;11.44;76.97;99642.40;1696732;82;21182;-84
2021/04/21 04:28:34;;;;;;;43.08;27.13;;;;;;;11.48;76.95;99633.13;1718779;82;21205;-84
2021/04/21 04:31:11;;;;;;;39.48;26.00;;;;;;;11.68;76.50;99626.89;1719174;83;21197;-87
2021/04/21 04:33:35;;;;;;;41.28;25.97;;;;;;;11.79;76.14;99623.01;1716477;82;21063;-87
2021/04/21 04:36:03;;;;;;;;;;;;;;;11.86;76.09;99623.11;1697771;83;21650;-84
2021/04/21 04:38:28;;;;;;;;;;;;;;;11.90;76.12;99627.54;1717853;83;20245;-84
2021/04/21 04:40:54;;;;;;;41.10;25.10;;;;;;;11.92;75.93;99636.14;1718349;83;21064;-84
2021/04/21 04:43:24;;;;;;;39.25;25.43;;;;;;;11.96;75.51;99635.64;1719223;81;20984;-85
2021/04/21 04:45:59;;;;;;;38.85;26.12;;;;;;;11.74;75.41;99630.63;1719890;82;21245;-83
2021/04/21 04:48:43;;;;;;;45.08;27.20;;;;;;;11.46;76.62;99643.04;1716159;82;21197;-84
2021/04/21 04:51:08;;;;;;;42.20;25.37;;;;;;;11.53;76.76;99645.83;1719437;82;21589;-83
2021/04/21 04:53:35;;;;;;;38.45;24.37;;;;;;;11.58;76.28;99650.59;1721509;82;29295;-84
2021/04/21 04:56:03;;;;;;;39.42;26.15;;;;;;;11.57;76.30;99641.82;1719052;81;21162;-83
2021/04/21 04:58:28;;;;;;;37.73;24.65;;;;;;;11.62;76.19;99643.94;1721570;82;21233;-84
2021/04/21 05:01:07;;;;;;;45.85;27.30;;;;;;;11.39;76.85;99642.11;1713199;82;27043;-82
2021/04/21 05:03:51;;;;;;;38.10;25.75;;;;;;;11.32;77.34;99643.79;1717147;82;21690;-83
2021/04/21 05:06:21;;;;;;;42.33;25.68;;;;;;;11.47;76.88;99642.56;1716135;82;21178;-83
2021/04/21 05:08:51;;;;;;;41.23;26.62;;;;;;;11.47;76.86;99646.53;1649938;85;22240;-82
2021/04/21 05:11:19;;;;;;;39.18;25.35;;;;;;;11.54;76.49;99649.29;1717652;81;21416;-83
2021/04/21 05:13:49;;;;;;;40.25;25.85;;;;;;;11.53;76.15;99652.44;1720506;82;21213;-82
2021/04/21 05:16:46;;;;;;;39.25;24.63;;;;;;;11.54;76.38;99654.58;1719484;81;21178;-83
2021/04/21 05:19:39;;;;;;;39.88;24.95;;;;;;;11.56;76.48;99649.92;1720713;81;21650;-85
2021/04/21 05:22:51;;;;;;;39.90;25.10;;;;;;;11.58;76.38;99650.59;1719329;82;21680;-83
2021/04/21 05:25:54;;;;;;;37.45;24.32;;;;;;;11.71;75.63;99650.01;1719149;82;21372;-85
2021/04/21 05:28:45;;;;;;;35.92;24.27;;;;;;;11.81;75.33;99649.28;1724450;81;22273;-81
2021/04/21 05:31:21;;;;;;;36.98;23.50;;;;;;;11.82;75.49;99646.95;1718347;81;21721;-84
2021/04/21 05:34:29;;;;;;;37.78;23.90;;;;;;;11.81;75.52;99651.93;1695744;82;21166;-85
2021/04/21 05:37:29;;;;;;;37.28;23.77;;;;;;;11.92;74.95;99650.22;1719475;82;21165;-87
2021/04/21 05:40:34;;;;;;;32.80;22.65;;;;;;;11.99;74.66;99655.62;1694133;82;21441;-85
2021/04/21 05:43:30;;;;;;;32.35;21.52;;;;;;;12.02;74.71;99646.84;1712362;81;21251;-85
2021/04/21 05:46:25;;;;;;;35.65;23.87;;;;;;;12.12;74.19;99651.88;1711915;82;21175;-87
2021/04/21 05:49:27;;;;;;;35.17;23.47;;;;;;;12.18;73.55;99654.30;1707351;82;21145;-82
2021/04/21 05:52:16;;;;;;;35.30;22.40;;;;;;;12.25;73.32;99651.77;1702223;82;21184;-88
2021/04/21 05:55:08;;;;;;;36.15;23.38;;;;;;;12.19;73.33;99654.11;1704180;82;21227;-84
2021/04/21 05:58:06;;;;;;;34.40;22.58;;;;;;;12.17;73.43;99650.83;1707190;82;21772;-84
2021/04/21 06:00:54;;;;;;;35.83;23.07;;;;;;;12.35;72.75;99654.97;1704533;82;21175;-83
2021/04/21 06:03:19;;;;;;;36.20;21.90;;;;;;;12.27;72.99;99657.70;1704001;82;21278;-84
2021/04/21 06:05:47;;;;;;;36.08;22.73;;;;;;;12.48;72.32;99649.89;1696499;82;21035;-87
2021/04/21 06:08:15;;;;;;;36.93;23.00;;;;;;;12.34;72.23;99654.16;1705948;82;21350;-88
2021/04/21 06:10:43;;;;;;;34.18;22.52;;;;;;;12.29;72.39;99654.36;1711460;82;21211;-91
2021/04/21 06:13:11;;;;;;;38.48;22.05;;;;;;;12.33;72.16;99656.47;1702333;82;21198;-89
2021/04/21 06:15:39;;;;;;;38.10;21.65;;;;;;;12.43;71.89;99654.91;1706770;82;21223;-86
2021/04/21 06:18:09;;;;;;;34.35;21.42;;;;;;;12.51;71.58;99658.80;1696116;82;21998;-86
2021/04/21 06:20:44;;;;;;;30.25;19.82;;;;;;;12.53;71.04;99660.75;1699601;82;21218;-85
2021/04/21 06:23:26;;;;;;;31.87;20.17;;;;;;;12.60;70.15;99665.33;1708333;82;21219;-86
2021/04/21 06:26:03;;;;;;;35.40;21.00;;;;;;;12.61;70.06;99659.84;1709388;82;21238;-87
2021/04/21 06:28:30;;;;;;;31.90;19.73;;;;;;;12.73;70.34;99653.09;1699764;82;21448;-84
2021/04/21 06:31:12;;;;;;;33.90;21.17;;;;;;;12.83;69.92;99656.79;1710310;82;21224;-83
2021/04/21 06:33:43;;;;;;;30.27;19.45;;;;;;;12.67;70.05;99653.83;1708322;82;21180;-82
2021/04/21 06:36:14;;;;;;;32.38;20.45;;;;;;;12.77;69.61;99660.68;1702769;82;22466;-83
2021/04/21 06:38:41;;;;;;;31.95;19.42;;;;;;;12.72;69.38;99651.95;1707834;81;21187;-83
2021/04/21 06:41:07;;;;;;;;;;;;;;;12.88;68.91;99654.91;1709678;82;21195;-82
2021/04/21 06:43:37;;;;;;;31.17;19.67;;;;;;;12.98;69.07;99648.03;1705434;81;20647;-81
2021/04/21 06:46:10;;;;;;;30.23;18.17;;;;;;;12.95;68.69;99651.05;1707966;81;21617;-82
2021/04/21 06:48:39;;;;;;;31.70;18.70;;;;;;;12.95;68.07;99647.08;1709543;81;22167;-85
2021/04/21 06:51:17;;;;;;;33.05;19.52;;;;;;;12.98;68.13;99648.84;1707083;81;21242;-84
2021/04/21 06:53:45;;;;;;;30.92;18.57;;;;;;;13.27;67.37;99645.84;1708449;81;21270;-82
2021/04/21 06:56:11;;;;;;;29.37;17.73;;;;;;;13.33;67.19;99641.61;1680686;81;21164;-82
2021/04/21 06:58:40;;;;;;;29.60;18.65;;;;;;;13.46;66.73;99643.94;1709570;81;21233;-82
2021/04/21 07:01:15;;;;;;;29.77;19.12;;;;;;;13.42;66.59;99647.99;1711936;81;21191;-82
2021/04/21 07:03:44;;;;;;;33.25;19.57;;;;;;;13.41;66.85;99649.50;1709467;81;21822;-82
2021/04/21 07:06:10;;;;;;;33.63;19.82;;;;;;;13.50;66.81;99645.73;1705820;81;21234;-82
2021/04/21 07:08:43;;;;;;;29.95;18.20;;;;;;;13.43;67.19;99635.55;1709089;81;21562;-82
2021/04/21 07:11:11;;;;;;;31.68;18.62;;;;;;;13.58;66.92;99637.64;1715795;81;21284;-82
2021/04/21 07:13:50;;;;;;;32.30;20.02;;;;;;;13.43;66.96;99639.52;1708490;81;21634;-83
2021/04/21 07:16:24;;;;;;;29.42;18.32;;;;;;;13.34;67.39;99638.80;1712083;81;21143;-82
2021/04/21 07:18:55;;;;;;;32.45;18.37;;;;;;;13.44;66.71;99642.50;1709480;81;21668;-83
2021/04/21 07:21:22;;;;;;;28.80;17.73;;;;;;;13.65;65.98;99641.69;1706458;81;21751;-82
2021/04/21 07:23:51;;;;;;;26.87;17.07;;;;;;;13.57;65.27;99635.18;1716742;81;22453;-83
2021/04/21 07:26:18;;;;;;;29.87;17.12;;;;;;;13.55;65.14;99645.98;1713892;81;21191;-82
2021/04/21 07:28:48;;;;;;;27.77;16.60;;;;;;;13.61;65.06;99647.88;1710180;81;21190;-83
2021/04/21 07:31:17;;;;;;;26.68;17.50;;;;;;;13.76;64.82;99642.50;1712599;81;21198;-85
2021/04/21 07:33:46;;;;;;;24.57;15.35;;;;;;;14.02;64.36;99637.13;1709484;81;21178;-83
2021/04/21 07:36:24;;;;;;;25.65;16.52;;;;;;;14.06;63.65;99649.50;1712791;81;21265;-85
2021/04/21 07:38:55;;;;;;;24.82;15.40;;;;;;;13.76;64.43;99652.30;1689119;81;21199;-81
2021/04/21 07:41:42;;;;;;;29.02;15.80;;;;;;;13.94;64.33;99648.70;1704527;81;21749;-82
2021/04/21 07:44:50;;;;;;;23.60;15.70;;;;;;;13.86;64.43;99644.86;1710749;81;21190;-83
2021/04/21 07:47:12;;;;;;;24.10;15.05;;;;;;;14.18;64.17;99649.30;1713856;81;21224;-82
2021/04/21 07:49:48;;;;;;;23.00;14.38;;;;;;;14.34;63.77;99639.73;1718878;81;21408;-81
2021/04/21 07:52:35;;;;;;;24.67;13.88;;;;;;;14.52;63.33;99639.75;1716486;81;21219;-85
2021/04/21 07:55:15;;;;;;;24.30;12.13;;;;;;;14.50;61.38;99643.11;1690891;83;21194;-84
2021/04/21 07:57:45;;;;;;;20.62;11.68;;;;;;;14.43;60.45;99644.89;1693277;81;21183;-86
2021/04/21 08:00:29;;;;;;;18.57;10.98;;;;;;;14.63;58.67;99629.11;1721465;81;21201;-83
2021/04/21 08:02:56;;;;;;;19.05;10.00;;;;;;;14.73;57.44;99632.25;1720022;81;21702;-81
2021/04/21 08:05:21;;;;;;;18.87;10.50;;;;;;;14.88;57.11;99644.07;1721260;81;21171;-82
2021/04/21 08:07:59;;;;;;;16.90;9.45;;;;;;;14.83;56.26;99637.20;1724289;81;20953;-81
2021/04/21 08:10:28;;;;;;;20.62;10.75;;;;;;;15.04;56.12;99630.45;1718393;81;22283;-84
2021/04/21 08:12:59;;;;;;;22.85;10.93;;;;;;;14.91;56.32;99637.03;1717325;81;21144;-84
2021/04/21 08:15:37;;;;;;;23.73;12.80;;;;;;;15.12;56.16;99624.63;1716554;81;21183;-82
2021/04/21 08:18:15;;;;;;;;;;;;;;;14.96;56.75;99642.59;1718905;81;21218;-84
2021/04/21 08:20:51;;;;;;;25.08;13.40;;;;;;;14.78;57.28;99642.30;1689709;81;33719;-86
2021/04/21 08:23:19;;;;;;;23.95;13.05;;;;;;;14.88;57.40;99646.23;1717972;81;21499;-88
2021/04/21 08:25:44;;;;;;;;;;;;;;;14.97;57.78;99640.23;1724075;80;21238;-82
2021/04/21 08:28:12;;;;;;;21.17;12.63;;;;;;;14.94;58.13;99650.45;1724624;81;21194;-80
2021/04/21 08:30:39;;;;;;;;;;;;;;;14.81;58.82;99645.38;1719862;81;21171;-85
2021/04/21 08:33:07;;;;;;;27.20;14.70;;;;;;;14.87;59.20;99641.93;1697259;81;20277;-86
2021/04/21 08:35:33;;;;;;;32.23;16.80;;;;;;;14.93;59.74;99646.98;1724102;81;21203;-83
2021/04/21 08:38:01;;;;;;;30.60;17.40;;;;;;;14.83;61.02;99647.84;1722890;81;21210;-85
2021/04/21 08:40:26;;;;;;;32.90;17.02;;;;;;;14.90;61.90;99647.38;1724579;81;22296;-81
2021/04/21 08:42:56;;;;;;;30.97;16.70;;;;;;;14.70;63.48;99661.88;1718106;81;21213;-82
2021/04/21 08:45:23;;;;;;;26.90;16.15;;;;;;;14.74;62.86;99651.66;1725086;81;21160;-83
2021/04/21 08:47:51;;;;;;;27.80;16.25;;;;;;;14.54;63.18;99666.94;1722331;81;21701;-82
2021/04/21 08:50:18;;;;;;;25.95;16.27;;;;;;;14.64;62.65;99649.37;1720760;81;21185;-82
2021/04/21 08:52:55;;;;;;;29.05;17.27;;;;;;;14.69;62.72;99655.72;1724253;81;21233;-84
2021/04/21 08:55:20;;;;;;;31.27;16.95;;;;;;;14.73;62.77;99653.52;1717609;81;21204;-82
2021/04/21 08:57:49;;;;;;;27.75;16.57;;;;;;;14.71;63.02;99655.52;1723089;81;21043;-83
2021/04/21 09:00:18;;;;;;;31.12;18.00;;;;;;;14.87;63.01;99651.75;1727289;81;21637;-83
2021/04/21 09:02:50;;;;;;;31.87;19.20;;;;;;;14.91;63.21;99660.95;1725935;81;21177;-85
2021/04/21 09:05:18;;;;;;;27.50;16.85;;;;;;;14.85;63.54;99654.61;1727560;80;22445;-83
2021/04/21 09:07:46;;;;;;;34.75;18.60;;;;;;;14.89;63.89;99659.02;1703809;81;21632;-84
2021/04/21 09:10:16;;;;;;;31.35;18.95;;;;;;;14.78;64.16;99651.08;1723527;81;21168;-83
2021/04/21 09:12:42;;;;;;;35.40;19.45;;;;;;;14.68;64.82;99653.26;1720949;81;21182;-81
2021/04/21 09:15:15;;;;;;;28.73;17.55;;;;;;;14.87;64.77;99650.42;1721991;81;20935;-83
2021/04/21 09:17:51;;;;;;;31.15;17.62;;;;;;;14.78;64.23;99656.91;1696793;82;21677;-82
2021/04/21 09:20:23;;;;;;;28.38;16.57;;;;;;;14.98;63.52;99655.17;1725479;81;21185;-85
2021/04/21 09:23:13;;;;;;;27.10;17.10;;;;;;;14.82;62.39;99662.12;1723034;81;21210;-85
2021/04/21 09:25:43;;;;;;;26.30;16.07;;;;;;;14.76;62.37;99653.61;1727804;81;21623;-83
2021/04/21 09:28:09;;;;;;;28.10;16.20;;;;;;;14.76;62.21;99646.97;1723855;81;21689;-85
2021/04/21 09:30:36;;;;;;;24.30;16.23;;;;;;;15.08;62.16;99646.30;1722760;81;21658;-86
2021/04/21 09:33:04;;;;;;;;;;;;;;;14.99;61.82;99644.86;1722631;81;21196;-83
2021/04/21 09:35:41;;;;;;;23.62;15.80;;;;;;;15.04;61.53;99653.05;1725650;81;20334;-82
2021/04/21 09:38:27;;;;;;;25.23;14.60;;;;;;;15.24;61.01;99646.98;1723263;81;21618;-82
2021/04/21 09:41:15;;;;;;;25.75;14.18;;;;;;;15.31;60.67;99645.17;1719302;81;21198;-84
2021/04/21 09:43:44;;;;;;;24.82;14.80;;;;;;;15.54;59.89;99649.35;1718044;81;21237;-82
2021/04/21 09:46:18;;;;;;;23.83;14.50;;;;;;;15.64;58.83;99638.31;1723490;81;21192;-87
2021/04/21 09:48:49;;;;;;;23.73;14.58;;;;;;;15.55;58.86;99637.66;1728003;81;21717;-86
2021/04/21 09:51:20;;;;;;;29.23;15.00;;;;;;;15.64;58.25;99632.98;1726999;81;21185;-85
2021/04/21 09:53:48;;;;;;;22.48;14.95;;;;;;;15.73;58.61;99624.59;1701435;81;21135;-85
2021/04/21 09:56:22;;;;;;;28.42;14.70;;;;;;;15.71;58.58;99626.65;1722079;81;21322;-84
2021/04/21 09:58:58;;;;;;;25.97;15.40;;;;;;;15.77;58.02;99629.87;1694078;81;21194;-84
2021/04/21 10:01:40;;;;;;;20.15;13.18;;;;;;;15.63;56.56;99632.17;1722317;81;21205;-84
2021/04/21 10:04:27;;;;;;;21.52;13.35;;;;;;;15.78;54.83;99624.86;1725277;81;21175;-89
2021/04/21 10:06:57;;;;;;;18.57;12.33;;;;;;;15.84;54.87;99623.20;1723239;81;21203;-83
2021/04/21 10:09:35;;;;;;;20.32;10.63;;;;;;;16.00;53.17;99615.32;1725929;81;21344;-84
2021/04/21 10:12:36;;;;;;;15.03;9.43;;;;;;;16.31;51.85;99617.87;1729598;81;21200;-84
2021/04/21 10:15:09;;;;;;;17.00;9.48;;;;;;;16.28;49.97;99624.94;1725236;81;21091;-84
2021/04/21 10:17:41;;;;;;;18.57;9.80;;;;;;;16.20;48.42;99618.50;1719979;81;21160;-84
2021/04/21 10:20:13;;;;;;;17.30;9.88;;;;;;;16.33;47.75;99614.50;1726735;81;21215;-85
2021/04/21 10:22:42;;;;;;;17.62;9.40;;;;;;;16.39;47.36;99607.02;1722105;81;21206;-84
2021/04/21 10:25:09;;;;;;;18.67;7.50;;;;;;;16.51;46.08;99618.68;1724812;81;21231;-85
2021/04/21 10:27:38;;;;;;;12.37;6.35;;;;;;;16.42;43.79;99601.27;1729898;81;21075;-85
2021/04/21 10:30:07;;;;;;;12.78;5.65;;;;;;;16.36;41.93;99614.09;1726305;81;21184;-84
2021/04/21 10:32:35;;;;;;;14.87;6.37;;;;;;;16.40;41.15;99629.95;1726055;81;21309;-84
2021/04/21 10:35:04;;;;;;;13.95;6.95;;;;;;;16.53;41.51;99598.48;1701357;81;21186;-85
2021/04/21 10:37:40;;;;;;;15.38;7.00;;;;;;;16.78;42.89;99599.94;1724730;81;21192;-85
2021/04/21 10:40:10;;;;;;;17.00;7.55;;;;;;;16.78;43.02;99594.61;1728192;81;21167;-84
2021/04/21 10:42:55;;;;;;;19.62;8.63;;;;;;;16.60;43.21;99607.78;1723355;81;21264;-83
2021/04/21 10:45:25;;;;;;;17.55;9.48;;;;;;;16.62;43.98;99605.72;1726701;81;21130;-89
2021/04/21 10:47:54;;;;;;;15.38;8.38;;;;;;;16.63;45.48;99591.38;1721419;81;21347;-86
2021/04/21 10:50:45;;;;;;;16.73;7.72;;;;;;;16.82;45.11;99579.80;1728954;81;21191;-82
2021/04/21 10:53:22;;;;;;;13.13;7.08;;;;;;;16.83;43.57;99593.98;1711775;81;21667;-88
2021/04/21 10:55:48;;;;;;;14.68;7.33;;;;;;;16.83;42.62;99594.78;1716091;81;21222;-88
2021/04/21 10:58:14;;;;;;;14.78;6.42;;;;;;;16.92;43.26;99586.57;1691232;81;21197;-84
2021/04/21 11:00:47;;;;;;;15.23;6.45;;;;;;;17.17;43.08;99570.15;1725999;81;21321;-84
2021/04/21 11:03:25;;;;;;;13.00;6.65;;;;;;;17.03;41.98;99574.73;1703891;81;22072;-85
2021/04/21 11:05:51;;;;;;;15.98;6.00;;;;;;;17.07;41.59;99567.11;1702554;81;21194;-88
2021/04/21 11:08:25;;;;;;;16.05;7.22;;;;;;;17.06;41.53;99585.50;1719234;81;21161;-86
2021/04/21 11:11:03;;;;;;;12.05;6.30;;;;;;;17.06;41.76;99568.16;1726716;81;21209;-89
2021/04/21 11:13:39;;;;;;;12.25;5.92;;;;;;;16.95;40.39;99586.98;1724244;81;21187;-90
2021/04/21 11:16:26;;;;;;;12.82;5.97;;;;;;;17.01;40.44;99563.96;1722071;81;21196;-85
2021/04/21 11:18:54;;;;;;;;;;;;;;;17.12;40.45;99559.80;1723212;81;21166;-85
2021/04/21 11:21:21;;;;;;;15.15;6.75;;;;;;;17.27;41.21;99570.20;1722818;81;20576;-81
2021/04/21 11:24:07;;;;;;;12.30;6.35;;;;;;;17.23;41.25;99566.63;1724866;81;21194;-86
2021/04/21 11:26:36;;;;;;;14.53;6.58;;;;;;;17.19;41.65;99568.60;1726983;81;21307;-87
2021/04/21 11:29:14;;;;;;;15.78;6.35;;;;;;;17.32;40.61;99551.69;1719948;81;21227;-86
2021/04/21 11:31:53;;;;;;;13.83;6.03;;;;;;;17.35;40.34;99567.27;1716825;81;21251;-88
2021/04/21 11:34:28;;;;;;;13.48;5.60;;;;;;;17.55;40.62;99548.45;1726076;81;21180;-87
2021/04/21 11:37:09;;;;;;;14.95;5.55;;;;;;;17.68;40.19;99566.22;1728363;81;21218;-89
2021/04/21 11:39:47;;;;;;;13.65;5.80;;;;;;;17.66;39.36;99540.26;1723221;81;21686;-88
2021/04/21 11:42:39;;;;;;;16.02;6.33;;;;;;;17.35;39.88;99549.92;1705928;82;21215;-87
2021/04/21 11:45:26;;;;;;;13.08;5.50;;;;;;;17.32;39.84;99553.02;1724362;81;21182;-87
2021/04/21 11:48:08;;;;;;;11.48;5.53;;;;;;;17.55;40.37;99535.10;1722324;81;21188;-87
2021/04/21 11:50:41;;;;;;;12.07;5.50;;;;;;;17.48;39.84;99541.83;1724160;81;21042;-88
2021/04/21 11:53:15;;;;;;;14.28;6.40;;;;;;;17.46;40.19;99517.19;1724637;81;21390;-86
2021/04/21 11:55:57;;;;;;;10.95;5.40;;;;;;;17.42;40.19;99534.69;1724197;81;21230;-93
2021/04/21 11:58:33;;;;;;;11.60;5.60;;;;;;;17.53;40.28;99525.16;1729040;81;21136;-82
2021/04/21 12:01:03;;;;;;;10.95;5.53;;;;;;;17.58;40.28;99519.45;1720556;81;21173;-87